Bethalto, Illinois
Current Conditions -  °F | °C
As of 12:15 AM on Monday 22 Dec 2014 (Local Time) from KALN Reporting Station
Overcast Overcast  
Wind Chill: 35°   Ceiling: 5000
Heat Index: 40°   Visibility: 10mi
Dew Point: 32°   Wind: 7mph
Humidity: 72%   Direction: 100°E
Pressure: 29.94"   Gusts: NA
Location:  38.91°N, 90.04°W
Report Text: KALN 220615Z AUTO 10006KT 10SM OVC050 05/00 A2994 RMK AO2 T00451002
Loading
Personal Weather Stations






























Interactive Weather Map New forecast layout! Learn more

10-Day Weather Forecast

Advertisements
Track Severe Weather on mobile